Etusivu
METAR-TAF:

METAR-TAF

Lentoasemat :

Bordeaux, Ranska

Leveyspiiri: 44-50N, Pituuspiiri: 000-42W, korkeus merenpinnasta: 49 m

Tämänhetkinen sää

Tämä raportti tehtiin 11 minuuttia sitten, kello 01.30 UTC
Tuuli 11 kn pohjoisesta/koillisesta
Lämpötila 15°C
Kosteus 82%
Ilmanpaine 1028 hPa
Näkyvyys 10 km tai enemmän
Hajonneita pilviä 2000 ft:n korkeudessa
Pilvistä 3800 ft:n korkeudessa

METAR: LFBD 240130Z AUTO 02011KT 9999 BKN020 OVC038 15/12 Q1028 NOSIG

Aika: 03:41 (01:41 UTC)

Sääennuste

Tämä raportti tehtiin 1 tunti ja 12 minuuttia sitten, kello 00.29 UTC
Ennuste voimassa 24. päivästä klo 00 UTC - 25. päivään klo 06 UTC
Tuuli 15 kn pohjoisesta/koillisesta
Näkyvyys 10 km tai enemmän
Hajonneita pilviä 2500 ft:n korkeudessa
Tulossa
24. päivästä klo 03 UTC - 24. päivään klo 06 UTC
Näkyvyys 10 km tai enemmän
ei pilviä alle 1500 m:ssä eikä cumulonimbus-pilviä

TAF: LFBD 240029Z 2400/2506 03015KT 9999 BKN025 TX21/2415Z TN10/2406Z BECMG 2403/2406 CAVOK

Säähavainnot ja -ennusteet yli 4000 lentoasemalta (METAR- ja TAF-raportit).

Käytössä olevat sääasemat on merkitty karttaan keltaisilla ja punaisilla pisteillä.

Aseta hiiri pisteen päälle nähdäksesi sääaseman nimen.

Klikkaa sitten nähdäksesi säähavainnot ja -ennusteet.

Kartan vaihtaminen: klikkaa mustalla rastilla varustettuja vihreitä pisteitä, niin voit zoomata sisään; viivalla varustettua vihreää pistettä, niin voit zoomata ulos tai vihreitä nuolia, niin pääset viereisille kartoille.


METAR-TAF: